sensor_id;sensor_type;location;lat;lon;timestamp;P1;durP1;ratioP1;P2;durP2;ratioP2
73508;SDS011;61750;55.036;73.312;2022-09-16T00:02:14;61.05;;;29.10;;
73508;SDS011;61750;55.036;73.312;2022-09-16T00:07:13;57.38;;;26.45;;
73508;SDS011;61750;55.036;73.312;2022-09-16T00:12:13;63.55;;;27.20;;
73508;SDS011;61750;55.036;73.312;2022-09-16T00:17:19;52.20;;;23.48;;
73508;SDS011;61750;55.036;73.312;2022-09-16T00:19:56;45.60;;;20.25;;
73508;SDS011;61750;55.036;73.312;2022-09-16T00:22:23;48.67;;;24.30;;
73508;SDS011;61750;55.036;73.312;2022-09-16T00:24:49;24.20;;;13.50;;
73508;SDS011;61750;55.036;73.312;2022-09-16T00:27:15;53.10;;;25.38;;
73508;SDS011;61750;55.036;73.312;2022-09-16T00:29:41;58.92;;;25.73;;
73508;SDS011;61750;55.036;73.312;2022-09-16T00:32:08;49.70;;;23.60;;
73508;SDS011;61750;55.036;73.312;2022-09-16T00:37:18;53.95;;;23.48;;
73508;SDS011;61750;55.036;73.312;2022-09-16T00:39:54;43.95;;;19.00;;
73508;SDS011;61750;55.036;73.312;2022-09-16T00:42:20;56.97;;;25.83;;
73508;SDS011;61750;55.036;73.312;2022-09-16T00:47:51;63.92;;;26.00;;
73508;SDS011;61750;55.036;73.312;2022-09-16T00:50:35;58.72;;;26.70;;
73508;SDS011;61750;55.036;73.312;2022-09-16T00:53:30;54.78;;;25.23;;
73508;SDS011;61750;55.036;73.312;2022-09-16T00:56:08;60.55;;;28.08;;
73508;SDS011;61750;55.036;73.312;2022-09-16T00:58:45;66.70;;;28.02;;
73508;SDS011;61750;55.036;73.312;2022-09-16T01:01:20;66.32;;;29.90;;
73508;SDS011;61750;55.036;73.312;2022-09-16T01:03:48;62.67;;;28.67;;
73508;SDS011;61750;55.036;73.312;2022-09-16T01:06:22;69.53;;;30.52;;
73508;SDS011;61750;55.036;73.312;2022-09-16T01:08:59;66.50;;;28.95;;
73508;SDS011;61750;55.036;73.312;2022-09-16T01:11:27;62.45;;;28.73;;
73508;SDS011;61750;55.036;73.312;2022-09-16T01:13:58;62.00;;;29.25;;
73508;SDS011;61750;55.036;73.312;2022-09-16T01:45:41;60.25;;;28.65;;
73508;SDS011;61750;55.036;73.312;2022-09-16T01:48:36;54.83;;;26.13;;
73508;SDS011;61750;55.036;73.312;2022-09-16T01:53:45;52.97;;;23.98;;
73508;SDS011;61750;55.036;73.312;2022-09-16T01:59:02;47.35;;;23.10;;
73508;SDS011;61750;55.036;73.312;2022-09-16T02:01:56;44.70;;;22.10;;
73508;SDS011;61750;55.036;73.312;2022-09-16T02:04:55;27.70;;;16.55;;
73508;SDS011;61750;55.036;73.312;2022-09-16T02:07:28;42.42;;;20.38;;
73508;SDS011;61750;55.036;73.312;2022-09-16T02:12:58;37.38;;;18.63;;
73508;SDS011;61750;55.036;73.312;2022-09-16T02:15:31;45.33;;;17.20;;
73508;SDS011;61750;55.036;73.312;2022-09-16T02:18:00;48.58;;;19.67;;
73508;SDS011;61750;55.036;73.312;2022-09-16T02:20:30;37.70;;;17.85;;
73508;SDS011;61750;55.036;73.312;2022-09-16T02:23:02;41.03;;;18.67;;
73508;SDS011;61750;55.036;73.312;2022-09-16T02:25:35;40.58;;;17.02;;
73508;SDS011;61750;55.036;73.312;2022-09-16T02:28:06;42.28;;;18.52;;
73508;SDS011;61750;55.036;73.312;2022-09-16T02:30:39;34.35;;;16.42;;
73508;SDS011;61750;55.036;73.312;2022-09-16T02:33:14;28.73;;;16.13;;
73508;SDS011;61750;55.036;73.312;2022-09-16T02:35:42;41.13;;;16.85;;
73508;SDS011;61750;55.036;73.312;2022-09-16T02:38:29;42.35;;;17.98;;
73508;SDS011;61750;55.036;73.312;2022-09-16T02:41:05;42.25;;;20.30;;
73508;SDS011;61750;55.036;73.312;2022-09-16T02:43:32;37.15;;;18.02;;
73508;SDS011;61750;55.036;73.312;2022-09-16T02:51:44;42.05;;;18.45;;
73508;SDS011;61750;55.036;73.312;2022-09-16T02:57:19;47.08;;;18.48;;
73508;SDS011;61750;55.036;73.312;2022-09-16T03:02:11;32.38;;;14.48;;
73508;SDS011;61750;55.036;73.312;2022-09-16T03:07:13;20.48;;;10.65;;
73508;SDS011;61750;55.036;73.312;2022-09-16T03:13:01;18.98;;;9.40;;
73508;SDS011;61750;55.036;73.312;2022-09-16T03:15:32;18.17;;;9.25;;
73508;SDS011;61750;55.036;73.312;2022-09-16T03:18:15;19.05;;;10.40;;
73508;SDS011;61750;55.036;73.312;2022-09-16T03:26:19;22.52;;;10.15;;
73508;SDS011;61750;55.036;73.312;2022-09-16T03:31:31;25.40;;;11.40;;
73508;SDS011;61750;55.036;73.312;2022-09-16T03:34:08;26.27;;;10.88;;
73508;SDS011;61750;55.036;73.312;2022-09-16T03:36:49;19.63;;;11.98;;
73508;SDS011;61750;55.036;73.312;2022-09-16T03:39:51;56.03;;;37.72;;
73508;SDS011;61750;55.036;73.312;2022-09-16T03:42:23;14.02;;;8.13;;
73508;SDS011;61750;55.036;73.312;2022-09-16T03:44:49;8.00;;;5.10;;
73508;SDS011;61750;55.036;73.312;2022-09-16T03:47:20;21.52;;;8.82;;
73508;SDS011;61750;55.036;73.312;2022-09-16T03:49:51;14.40;;;4.20;;
73508;SDS011;61750;55.036;73.312;2022-09-16T03:52:22;19.30;;;8.85;;
73508;SDS011;61750;55.036;73.312;2022-09-16T03:54:49;5.70;;;4.20;;
73508;SDS011;61750;55.036;73.312;2022-09-16T03:57:25;17.73;;;9.30;;
73508;SDS011;61750;55.036;73.312;2022-09-16T03:59:57;18.90;;;8.18;;
73508;SDS011;61750;55.036;73.312;2022-09-16T04:02:34;12.98;;;7.30;;
73508;SDS011;61750;55.036;73.312;2022-09-16T04:05:06;16.35;;;7.70;;
73508;SDS011;61750;55.036;73.312;2022-09-16T04:07:33;10.48;;;5.80;;
73508;SDS011;61750;55.036;73.312;2022-09-16T04:10:00;13.15;;;6.55;;
73508;SDS011;61750;55.036;73.312;2022-09-16T04:12:27;10.25;;;5.30;;
73508;SDS011;61750;55.036;73.312;2022-09-16T04:14:53;7.10;;;4.97;;
73508;SDS011;61750;55.036;73.312;2022-09-16T04:17:19;11.75;;;5.20;;
73508;SDS011;61750;55.036;73.312;2022-09-16T04:22:13;12.63;;;6.75;;
73508;SDS011;61750;55.036;73.312;2022-09-16T04:27:13;21.88;;;9.30;;
73508;SDS011;61750;55.036;73.312;2022-09-16T04:29:40;19.90;;;9.40;;
73508;SDS011;61750;55.036;73.312;2022-09-16T04:32:06;22.85;;;11.00;;
73508;SDS011;61750;55.036;73.312;2022-09-16T04:37:14;24.15;;;12.05;;
73508;SDS011;61750;55.036;73.312;2022-09-16T04:42:13;30.90;;;13.15;;
73508;SDS011;61750;55.036;73.312;2022-09-16T04:47:13;26.55;;;13.55;;
73508;SDS011;61750;55.036;73.312;2022-09-16T04:52:13;28.20;;;12.95;;
73508;SDS011;61750;55.036;73.312;2022-09-16T04:57:23;29.58;;;13.25;;
73508;SDS011;61750;55.036;73.312;2022-09-16T05:00:00;23.42;;;12.70;;
73508;SDS011;61750;55.036;73.312;2022-09-16T05:02:27;36.20;;;14.23;;
73508;SDS011;61750;55.036;73.312;2022-09-16T05:04:59;25.35;;;12.65;;
73508;SDS011;61750;55.036;73.312;2022-09-16T05:07:35;27.97;;;14.20;;
73508;SDS011;61750;55.036;73.312;2022-09-16T05:10:04;32.63;;;12.75;;
73508;SDS011;61750;55.036;73.312;2022-09-16T05:15:11;30.40;;;12.95;;
73508;SDS011;61750;55.036;73.312;2022-09-16T05:17:43;25.35;;;12.68;;
73508;SDS011;61750;55.036;73.312;2022-09-16T05:20:10;28.52;;;12.25;;
73508;SDS011;61750;55.036;73.312;2022-09-16T05:22:47;21.42;;;10.27;;
73508;SDS011;61750;55.036;73.312;2022-09-16T05:25:15;13.75;;;7.22;;
73508;SDS011;61750;55.036;73.312;2022-09-16T05:27:42;18.67;;;7.18;;
73508;SDS011;61750;55.036;73.312;2022-09-16T05:30:18;13.95;;;7.32;;
73508;SDS011;61750;55.036;73.312;2022-09-16T05:35:20;15.30;;;5.47;;
73508;SDS011;61750;55.036;73.312;2022-09-16T05:37:48;12.77;;;5.28;;
73508;SDS011;61750;55.036;73.312;2022-09-16T05:40:24;14.20;;;5.35;;
73508;SDS011;61750;55.036;73.312;2022-09-16T05:42:52;13.05;;;4.55;;
73508;SDS011;61750;55.036;73.312;2022-09-16T05:45:22;7.97;;;4.18;;
73508;SDS011;61750;55.036;73.312;2022-09-16T05:47:49;7.93;;;4.22;;
73508;SDS011;61750;55.036;73.312;2022-09-16T05:50:25;7.60;;;3.73;;
73508;SDS011;61750;55.036;73.312;2022-09-16T05:55:17;10.70;;;3.38;;
73508;SDS011;61750;55.036;73.312;2022-09-16T05:57:43;10.10;;;3.10;;
73508;SDS011;61750;55.036;73.312;2022-09-16T06:00:10;5.55;;;3.03;;
73508;SDS011;61750;55.036;73.312;2022-09-16T06:02:37;11.65;;;4.60;;
73508;SDS011;61750;55.036;73.312;2022-09-16T06:05:03;5.53;;;3.35;;
73508;SDS011;61750;55.036;73.312;2022-09-16T06:07:29;5.07;;;2.92;;
73508;SDS011;61750;55.036;73.312;2022-09-16T06:09:55;12.00;;;3.23;;
73508;SDS011;61750;55.036;73.312;2022-09-16T06:12:32;7.50;;;3.10;;
73508;SDS011;61750;55.036;73.312;2022-09-16T06:14:58;4.00;;;2.65;;
73508;SDS011;61750;55.036;73.312;2022-09-16T06:17:25;9.75;;;3.30;;
73508;SDS011;61750;55.036;73.312;2022-09-16T06:19:52;4.65;;;2.20;;
73508;SDS011;61750;55.036;73.312;2022-09-16T06:22:29;7.97;;;3.22;;
73508;SDS011;61750;55.036;73.312;2022-09-16T06:24:55;3.85;;;2.58;;
73508;SDS011;61750;55.036;73.312;2022-09-16T06:27:26;6.45;;;3.30;;
73508;SDS011;61750;55.036;73.312;2022-09-16T06:30:03;7.22;;;3.58;;
73508;SDS011;61750;55.036;73.312;2022-09-16T06:32:38;9.80;;;3.72;;
73508;SDS011;61750;55.036;73.312;2022-09-16T06:35:15;6.05;;;3.40;;
73508;SDS011;61750;55.036;73.312;2022-09-16T06:37:41;7.60;;;3.50;;
73508;SDS011;61750;55.036;73.312;2022-09-16T06:40:12;8.13;;;3.60;;
73508;SDS011;61750;55.036;73.312;2022-09-16T06:42:38;9.93;;;3.60;;
73508;SDS011;61750;55.036;73.312;2022-09-16T06:45:05;10.48;;;3.75;;
73508;SDS011;61750;55.036;73.312;2022-09-16T06:49:58;10.25;;;3.45;;
73508;SDS011;61750;55.036;73.312;2022-09-16T06:52:29;8.38;;;3.67;;
73508;SDS011;61750;55.036;73.312;2022-09-16T06:54:57;14.35;;;4.03;;
73508;SDS011;61750;55.036;73.312;2022-09-16T06:57:24;9.02;;;3.88;;
73508;SDS011;61750;55.036;73.312;2022-09-16T06:59:50;8.95;;;3.63;;
73508;SDS011;61750;55.036;73.312;2022-09-16T07:02:17;10.10;;;4.95;;
73508;SDS011;61750;55.036;73.312;2022-09-16T07:04:54;5.15;;;3.20;;
73508;SDS011;61750;55.036;73.312;2022-09-16T07:07:30;5.85;;;3.53;;
73508;SDS011;61750;55.036;73.312;2022-09-16T07:09:57;6.05;;;3.45;;
73508;SDS011;61750;55.036;73.312;2022-09-16T07:12:23;12.88;;;4.22;;
73508;SDS011;61750;55.036;73.312;2022-09-16T07:14:49;3.10;;;1.70;;
73508;SDS011;61750;55.036;73.312;2022-09-16T07:17:25;8.27;;;3.55;;
73508;SDS011;61750;55.036;73.312;2022-09-16T07:19:52;4.10;;;2.95;;
73508;SDS011;61750;55.036;73.312;2022-09-16T07:24:54;10.23;;;3.30;;
73508;SDS011;61750;55.036;73.312;2022-09-16T07:27:30;10.27;;;3.80;;
73508;SDS011;61750;55.036;73.312;2022-09-16T07:30:07;8.05;;;3.40;;
73508;SDS011;61750;55.036;73.312;2022-09-16T07:32:33;6.97;;;3.10;;
73508;SDS011;61750;55.036;73.312;2022-09-16T07:34:59;7.32;;;3.55;;
73508;SDS011;61750;55.036;73.312;2022-09-16T07:37:30;6.97;;;3.30;;
73508;SDS011;61750;55.036;73.312;2022-09-16T07:40:01;9.30;;;3.10;;
73508;SDS011;61750;55.036;73.312;2022-09-16T07:42:39;8.18;;;3.20;;
73508;SDS011;61750;55.036;73.312;2022-09-16T07:45:07;6.20;;;2.90;;
73508;SDS011;61750;55.036;73.312;2022-09-16T07:47:43;8.77;;;3.55;;
73508;SDS011;61750;55.036;73.312;2022-09-16T07:50:17;6.43;;;3.20;;
73508;SDS011;61750;55.036;73.312;2022-09-16T07:52:43;6.20;;;3.10;;
73508;SDS011;61750;55.036;73.312;2022-09-16T07:55:10;6.82;;;2.72;;
73508;SDS011;61750;55.036;73.312;2022-09-16T07:57:47;5.82;;;2.90;;
73508;SDS011;61750;55.036;73.312;2022-09-16T08:00:14;5.82;;;2.80;;
73508;SDS011;61750;55.036;73.312;2022-09-16T08:02:42;5.25;;;2.88;;
73508;SDS011;61750;55.036;73.312;2022-09-16T08:05:18;9.40;;;3.30;;
73508;SDS011;61750;55.036;73.312;2022-09-16T08:07:44;7.10;;;3.00;;
73508;SDS011;61750;55.036;73.312;2022-09-16T08:10:10;12.65;;;3.83;;
73508;SDS011;61750;55.036;73.312;2022-09-16T08:12:46;6.15;;;2.90;;
73508;SDS011;61750;55.036;73.312;2022-09-16T08:15:23;4.70;;;2.92;;
73508;SDS011;61750;55.036;73.312;2022-09-16T08:17:50;7.55;;;2.60;;
73508;SDS011;61750;55.036;73.312;2022-09-16T08:20:21;9.00;;;3.10;;
73508;SDS011;61750;55.036;73.312;2022-09-16T08:22:58;4.70;;;2.78;;
73508;SDS011;61750;55.036;73.312;2022-09-16T08:25:34;4.28;;;2.50;;
73508;SDS011;61750;55.036;73.312;2022-09-16T08:28:10;6.15;;;2.70;;
73508;SDS011;61750;55.036;73.312;2022-09-16T08:30:42;5.85;;;2.17;;
73508;SDS011;61750;55.036;73.312;2022-09-16T08:33:09;3.15;;;1.95;;
73508;SDS011;61750;55.036;73.312;2022-09-16T08:35:41;4.88;;;2.30;;
73508;SDS011;61750;55.036;73.312;2022-09-16T08:38:07;5.22;;;2.40;;
73508;SDS011;61750;55.036;73.312;2022-09-16T08:40:33;3.55;;;2.35;;
73508;SDS011;61750;55.036;73.312;2022-09-16T08:43:20;4.63;;;2.25;;
73508;SDS011;61750;55.036;73.312;2022-09-16T08:46:00;5.17;;;2.10;;
73508;SDS011;61750;55.036;73.312;2022-09-16T08:51:22;13.82;;;2.83;;
73508;SDS011;61750;55.036;73.312;2022-09-16T08:56:24;5.05;;;2.47;;
73508;SDS011;61750;55.036;73.312;2022-09-16T08:58:55;4.88;;;2.03;;
73508;SDS011;61750;55.036;73.312;2022-09-16T09:01:33;4.45;;;2.30;;
73508;SDS011;61750;55.036;73.312;2022-09-16T09:04:04;3.90;;;2.05;;
73508;SDS011;61750;55.036;73.312;2022-09-16T09:23:26;9.45;;;2.70;;
73508;SDS011;61750;55.036;73.312;2022-09-16T09:26:03;6.15;;;2.47;;
73508;SDS011;61750;55.036;73.312;2022-09-16T09:31:59;5.95;;;2.22;;
73508;SDS011;61750;55.036;73.312;2022-09-16T09:37:37;3.22;;;1.90;;
73508;SDS011;61750;55.036;73.312;2022-09-16T09:43:08;5.05;;;2.22;;
73508;SDS011;61750;55.036;73.312;2022-09-16T09:48:21;6.50;;;2.20;;
73508;SDS011;61750;55.036;73.312;2022-09-16T09:50:50;6.60;;;2.30;;
73508;SDS011;61750;55.036;73.312;2022-09-16T09:53:18;7.53;;;2.58;;
73508;SDS011;61750;55.036;73.312;2022-09-16T10:01:36;7.45;;;2.38;;
73508;SDS011;61750;55.036;73.312;2022-09-16T10:04:04;6.95;;;2.38;;
73508;SDS011;61750;55.036;73.312;2022-09-16T10:06:37;5.50;;;1.77;;
73508;SDS011;61750;55.036;73.312;2022-09-16T10:09:04;5.55;;;1.80;;
73508;SDS011;61750;55.036;73.312;2022-09-16T10:11:31;4.55;;;1.63;;
73508;SDS011;61750;55.036;73.312;2022-09-16T10:13:58;3.58;;;1.65;;
73508;SDS011;61750;55.036;73.312;2022-09-16T10:16:36;4.85;;;1.95;;
73508;SDS011;61750;55.036;73.312;2022-09-16T10:19:06;4.18;;;2.05;;
73508;SDS011;61750;55.036;73.312;2022-09-16T10:21:51;6.63;;;2.20;;
73508;SDS011;61750;55.036;73.312;2022-09-16T10:24:52;8.45;;;2.42;;
73508;SDS011;61750;55.036;73.312;2022-09-16T10:27:23;10.65;;;2.70;;
73508;SDS011;61750;55.036;73.312;2022-09-16T10:35:28;6.63;;;2.13;;
73508;SDS011;61750;55.036;73.312;2022-09-16T10:37:57;9.98;;;2.95;;
73508;SDS011;61750;55.036;73.312;2022-09-16T10:40:27;14.77;;;3.85;;
73508;SDS011;61750;55.036;73.312;2022-09-16T10:42:55;6.68;;;2.40;;
73508;SDS011;61750;55.036;73.312;2022-09-16T10:45:34;24.08;;;4.85;;
73508;SDS011;61750;55.036;73.312;2022-09-16T10:48:10;24.52;;;4.80;;
73508;SDS011;61750;55.036;73.312;2022-09-16T10:50:39;7.75;;;2.50;;
73508;SDS011;61750;55.036;73.312;2022-09-16T10:53:34;10.18;;;3.22;;
73508;SDS011;61750;55.036;73.312;2022-09-16T10:56:05;3.80;;;2.20;;
73508;SDS011;61750;55.036;73.312;2022-09-16T10:58:40;5.90;;;1.98;;
73508;SDS011;61750;55.036;73.312;2022-09-16T11:01:12;9.35;;;2.45;;
73508;SDS011;61750;55.036;73.312;2022-09-16T11:07:30;11.55;;;2.30;;
73508;SDS011;61750;55.036;73.312;2022-09-16T11:10:13;6.05;;;2.00;;
73508;SDS011;61750;55.036;73.312;2022-09-16T11:13:04;5.03;;;2.00;;
73508;SDS011;61750;55.036;73.312;2022-09-16T11:16:07;5.03;;;2.22;;
73508;SDS011;61750;55.036;73.312;2022-09-16T11:40:56;7.28;;;2.88;;
73508;SDS011;61750;55.036;73.312;2022-09-16T11:52:36;2.95;;;1.90;;
73508;SDS011;61750;55.036;73.312;2022-09-16T11:57:45;7.50;;;1.73;;
73508;SDS011;61750;55.036;73.312;2022-09-16T12:00:18;6.13;;;1.98;;
73508;SDS011;61750;55.036;73.312;2022-09-16T12:03:03;4.05;;;1.73;;
73508;SDS011;61750;55.036;73.312;2022-09-16T12:05:52;11.53;;;2.87;;
73508;SDS011;61750;55.036;73.312;2022-09-16T12:14:21;9.02;;;3.22;;
73508;SDS011;61750;55.036;73.312;2022-09-16T12:17:06;5.20;;;2.45;;
73508;SDS011;61750;55.036;73.312;2022-09-16T12:22:44;22.95;;;5.15;;
73508;SDS011;61750;55.036;73.312;2022-09-16T12:25:16;21.83;;;5.63;;
73508;SDS011;61750;55.036;73.312;2022-09-16T12:27:54;27.92;;;5.82;;
73508;SDS011;61750;55.036;73.312;2022-09-16T12:30:36;22.77;;;5.80;;
73508;SDS011;61750;55.036;73.312;2022-09-16T12:33:13;24.45;;;5.95;;
73508;SDS011;61750;55.036;73.312;2022-09-16T12:36:03;24.52;;;5.28;;
73508;SDS011;61750;55.036;73.312;2022-09-16T12:38:32;19.23;;;5.53;;
73508;SDS011;61750;55.036;73.312;2022-09-16T12:43:50;21.20;;;6.35;;
73508;SDS011;61750;55.036;73.312;2022-09-16T12:47:08;17.15;;;6.63;;
73508;SDS011;61750;55.036;73.312;2022-09-16T12:53:21;23.85;;;6.38;;
73508;SDS011;61750;55.036;73.312;2022-09-16T13:00:57;19.55;;;6.35;;
73508;SDS011;61750;55.036;73.312;2022-09-16T13:03:44;16.35;;;6.25;;
73508;SDS011;61750;55.036;73.312;2022-09-16T13:06:18;20.00;;;7.28;;
73508;SDS011;61750;55.036;73.312;2022-09-16T13:08:53;33.28;;;7.97;;
73508;SDS011;61750;55.036;73.312;2022-09-16T13:11:22;27.75;;;8.43;;
73508;SDS011;61750;55.036;73.312;2022-09-16T13:13:50;30.13;;;9.65;;
73508;SDS011;61750;55.036;73.312;2022-09-16T13:16:52;35.40;;;12.20;;
73508;SDS011;61750;55.036;73.312;2022-09-16T13:19:50;26.83;;;11.27;;
73508;SDS011;61750;55.036;73.312;2022-09-16T13:32:56;43.25;;;12.07;;
73508;SDS011;61750;55.036;73.312;2022-09-16T13:40:54;38.60;;;12.63;;
73508;SDS011;61750;55.036;73.312;2022-09-16T13:43:29;36.80;;;12.43;;
73508;SDS011;61750;55.036;73.312;2022-09-16T13:46:01;41.72;;;13.88;;
73508;SDS011;61750;55.036;73.312;2022-09-16T13:48:43;41.17;;;15.60;;
73508;SDS011;61750;55.036;73.312;2022-09-16T13:51:21;42.58;;;15.45;;
73508;SDS011;61750;55.036;73.312;2022-09-16T13:53:48;40.10;;;15.30;;
73508;SDS011;61750;55.036;73.312;2022-09-16T13:59:37;55.60;;;17.63;;
73508;SDS011;61750;55.036;73.312;2022-09-16T14:13:47;49.80;;;18.88;;
73508;SDS011;61750;55.036;73.312;2022-09-16T14:16:20;60.78;;;19.38;;
73508;SDS011;61750;55.036;73.312;2022-09-16T14:19:13;57.20;;;20.10;;
73508;SDS011;61750;55.036;73.312;2022-09-16T14:22:04;60.33;;;20.05;;
73508;SDS011;61750;55.036;73.312;2022-09-16T14:24:54;32.78;;;15.57;;
73508;SDS011;61750;55.036;73.312;2022-09-16T14:27:28;47.33;;;20.60;;
73508;SDS011;61750;55.036;73.312;2022-09-16T14:29:56;54.15;;;21.83;;
73508;SDS011;61750;55.036;73.312;2022-09-16T14:32:24;57.17;;;23.05;;
73508;SDS011;61750;55.036;73.312;2022-09-16T14:34:53;62.20;;;20.40;;
73508;SDS011;61750;55.036;73.312;2022-09-16T14:37:23;66.78;;;25.00;;
73508;SDS011;61750;55.036;73.312;2022-09-16T14:39:52;49.35;;;18.60;;
73508;SDS011;61750;55.036;73.312;2022-09-16T14:42:21;62.28;;;23.45;;
73508;SDS011;61750;55.036;73.312;2022-09-16T14:44:53;49.43;;;19.33;;
73508;SDS011;61750;55.036;73.312;2022-09-16T14:47:33;66.88;;;25.27;;
73508;SDS011;61750;55.036;73.312;2022-09-16T14:53:04;56.45;;;25.05;;
73508;SDS011;61750;55.036;73.312;2022-09-16T14:55:46;60.13;;;25.33;;
73508;SDS011;61750;55.036;73.312;2022-09-16T14:58:24;55.80;;;24.90;;
73508;SDS011;61750;55.036;73.312;2022-09-16T15:00:54;67.65;;;26.55;;
73508;SDS011;61750;55.036;73.312;2022-09-16T15:03:43;67.07;;;26.20;;
73508;SDS011;61750;55.036;73.312;2022-09-16T15:06:30;65.65;;;25.83;;
73508;SDS011;61750;55.036;73.312;2022-09-16T15:09:07;70.15;;;27.20;;
73508;SDS011;61750;55.036;73.312;2022-09-16T15:11:46;69.20;;;26.40;;
73508;SDS011;61750;55.036;73.312;2022-09-16T15:14:47;65.18;;;25.83;;
73508;SDS011;61750;55.036;73.312;2022-09-16T15:17:15;63.40;;;26.80;;
73508;SDS011;61750;55.036;73.312;2022-09-16T15:19:58;44.45;;;22.27;;
73508;SDS011;61750;55.036;73.312;2022-09-16T15:22:29;60.28;;;25.63;;
73508;SDS011;61750;55.036;73.312;2022-09-16T15:24:56;60.80;;;25.38;;
73508;SDS011;61750;55.036;73.312;2022-09-16T15:27:33;59.17;;;26.63;;
73508;SDS011;61750;55.036;73.312;2022-09-16T15:30:25;60.80;;;27.03;;
73508;SDS011;61750;55.036;73.312;2022-09-16T15:33:20;52.60;;;26.95;;
73508;SDS011;61750;55.036;73.312;2022-09-16T15:35:55;53.75;;;25.60;;
73508;SDS011;61750;55.036;73.312;2022-09-16T15:38:22;63.88;;;25.85;;
73508;SDS011;61750;55.036;73.312;2022-09-16T15:41:01;49.40;;;25.17;;
73508;SDS011;61750;55.036;73.312;2022-09-16T15:43:42;55.88;;;24.35;;
73508;SDS011;61750;55.036;73.312;2022-09-16T15:46:19;56.55;;;26.77;;
73508;SDS011;61750;55.036;73.312;2022-09-16T15:48:58;60.65;;;26.48;;
73508;SDS011;61750;55.036;73.312;2022-09-16T15:51:37;58.20;;;25.10;;
73508;SDS011;61750;55.036;73.312;2022-09-16T15:54:48;54.08;;;26.30;;
73508;SDS011;61750;55.036;73.312;2022-09-16T16:02:45;57.35;;;27.13;;
73508;SDS011;61750;55.036;73.312;2022-09-16T16:05:18;68.15;;;28.08;;
73508;SDS011;61750;55.036;73.312;2022-09-16T16:07:56;69.95;;;28.73;;
73508;SDS011;61750;55.036;73.312;2022-09-16T16:10:32;62.30;;;27.70;;
73508;SDS011;61750;55.036;73.312;2022-09-16T16:13:02;60.38;;;27.40;;
73508;SDS011;61750;55.036;73.312;2022-09-16T16:15:30;65.95;;;28.63;;
73508;SDS011;61750;55.036;73.312;2022-09-16T16:18:00;63.35;;;29.30;;
73508;SDS011;61750;55.036;73.312;2022-09-16T16:20:35;67.28;;;28.85;;
73508;SDS011;61750;55.036;73.312;2022-09-16T16:23:12;61.42;;;27.13;;
73508;SDS011;61750;55.036;73.312;2022-09-16T16:25:49;68.40;;;27.98;;
73508;SDS011;61750;55.036;73.312;2022-09-16T16:28:15;72.88;;;27.27;;
73508;SDS011;61750;55.036;73.312;2022-09-16T16:30:41;63.13;;;28.83;;
73508;SDS011;61750;55.036;73.312;2022-09-16T16:33:13;64.88;;;27.63;;
73508;SDS011;61750;55.036;73.312;2022-09-16T16:35:39;64.00;;;27.13;;
73508;SDS011;61750;55.036;73.312;2022-09-16T16:38:05;62.38;;;28.65;;
73508;SDS011;61750;55.036;73.312;2022-09-16T16:40:31;63.80;;;28.17;;
73508;SDS011;61750;55.036;73.312;2022-09-16T16:42:57;63.78;;;28.42;;
73508;SDS011;61750;55.036;73.312;2022-09-16T16:47:54;51.47;;;25.83;;
73508;SDS011;61750;55.036;73.312;2022-09-16T16:50:21;62.58;;;28.35;;
73508;SDS011;61750;55.036;73.312;2022-09-16T16:52:50;61.28;;;27.80;;
73508;SDS011;61750;55.036;73.312;2022-09-16T16:55:17;66.65;;;28.52;;
73508;SDS011;61750;55.036;73.312;2022-09-16T16:57:48;65.40;;;28.15;;
73508;SDS011;61750;55.036;73.312;2022-09-16T17:02:41;65.00;;;28.65;;
73508;SDS011;61750;55.036;73.312;2022-09-16T17:05:07;65.75;;;28.83;;
73508;SDS011;61750;55.036;73.312;2022-09-16T17:07:34;68.85;;;27.13;;
73508;SDS011;61750;55.036;73.312;2022-09-16T17:10:03;66.63;;;26.23;;
73508;SDS011;61750;55.036;73.312;2022-09-16T17:12:29;57.65;;;27.83;;
73508;SDS011;61750;55.036;73.312;2022-09-16T17:14:56;58.42;;;25.52;;
73508;SDS011;61750;55.036;73.312;2022-09-16T17:17:22;71.60;;;28.67;;
73508;SDS011;61750;55.036;73.312;2022-09-16T17:22:14;63.90;;;26.23;;
73508;SDS011;61750;55.036;73.312;2022-09-16T17:27:13;60.40;;;26.10;;
73508;SDS011;61750;55.036;73.312;2022-09-16T17:29:44;58.17;;;25.33;;
73508;SDS011;61750;55.036;73.312;2022-09-16T17:32:10;63.70;;;25.58;;
73508;SDS011;61750;55.036;73.312;2022-09-16T17:37:13;58.67;;;24.35;;
73508;SDS011;61750;55.036;73.312;2022-09-16T17:39:51;31.70;;;16.70;;
73508;SDS011;61750;55.036;73.312;2022-09-16T17:42:22;58.47;;;23.20;;
73508;SDS011;61750;55.036;73.312;2022-09-16T17:44:58;60.53;;;25.33;;
73508;SDS011;61750;55.036;73.312;2022-09-16T17:47:31;61.45;;;25.05;;
73508;SDS011;61750;55.036;73.312;2022-09-16T17:50:03;49.00;;;23.40;;
73508;SDS011;61750;55.036;73.312;2022-09-16T17:52:35;51.97;;;23.08;;
73508;SDS011;61750;55.036;73.312;2022-09-16T17:55:02;63.70;;;23.45;;
73508;SDS011;61750;55.036;73.312;2022-09-16T17:57:29;56.63;;;23.30;;
73508;SDS011;61750;55.036;73.312;2022-09-16T18:00:06;56.65;;;23.85;;
73508;SDS011;61750;55.036;73.312;2022-09-16T18:02:47;56.85;;;23.58;;
73508;SDS011;61750;55.036;73.312;2022-09-16T18:07:43;51.75;;;22.77;;
73508;SDS011;61750;55.036;73.312;2022-09-16T18:10:10;53.17;;;22.27;;
73508;SDS011;61750;55.036;73.312;2022-09-16T18:12:42;46.78;;;22.42;;
73508;SDS011;61750;55.036;73.312;2022-09-16T18:15:19;49.38;;;22.38;;
73508;SDS011;61750;55.036;73.312;2022-09-16T18:17:52;52.30;;;22.90;;
73508;SDS011;61750;55.036;73.312;2022-09-16T18:20:28;54.00;;;22.33;;
73508;SDS011;61750;55.036;73.312;2022-09-16T18:22:55;48.15;;;21.70;;
73508;SDS011;61750;55.036;73.312;2022-09-16T18:25:31;46.90;;;21.02;;
73508;SDS011;61750;55.036;73.312;2022-09-16T18:27:57;57.80;;;20.60;;
73508;SDS011;61750;55.036;73.312;2022-09-16T18:30:23;49.50;;;20.98;;
73508;SDS011;61750;55.036;73.312;2022-09-16T18:32:59;44.05;;;20.30;;
73508;SDS011;61750;55.036;73.312;2022-09-16T18:35:25;50.27;;;20.67;;
73508;SDS011;61750;55.036;73.312;2022-09-16T18:38:02;42.75;;;19.13;;
73508;SDS011;61750;55.036;73.312;2022-09-16T18:40:31;46.22;;;18.92;;
73508;SDS011;61750;55.036;73.312;2022-09-16T18:42:58;47.50;;;20.00;;
73508;SDS011;61750;55.036;73.312;2022-09-16T18:45:34;42.20;;;18.83;;
73508;SDS011;61750;55.036;73.312;2022-09-16T18:48:01;44.13;;;21.80;;
73508;SDS011;61750;55.036;73.312;2022-09-16T18:50:27;47.25;;;19.85;;
73508;SDS011;61750;55.036;73.312;2022-09-16T18:53:03;45.97;;;20.13;;
73508;SDS011;61750;55.036;73.312;2022-09-16T18:55:29;43.13;;;18.88;;
73508;SDS011;61750;55.036;73.312;2022-09-16T18:57:56;41.78;;;17.92;;
73508;SDS011;61750;55.036;73.312;2022-09-16T19:00:28;40.47;;;18.30;;
73508;SDS011;61750;55.036;73.312;2022-09-16T19:02:58;40.63;;;18.30;;
73508;SDS011;61750;55.036;73.312;2022-09-16T19:05:34;41.58;;;17.80;;
73508;SDS011;61750;55.036;73.312;2022-09-16T19:08:01;39.90;;;17.63;;
73508;SDS011;61750;55.036;73.312;2022-09-16T19:10:37;48.20;;;17.75;;
73508;SDS011;61750;55.036;73.312;2022-09-16T19:13:13;35.75;;;16.10;;
73508;SDS011;61750;55.036;73.312;2022-09-16T19:15:39;44.58;;;17.08;;
73508;SDS011;61750;55.036;73.312;2022-09-16T19:18:05;43.50;;;15.95;;